createdAt,value
2022-08-04T00:00:07.176Z,41.97
2022-08-04T00:03:11.426Z,42.13
2022-08-04T00:05:59.585Z,42.95
2022-08-04T00:08:41.876Z,42.42
2022-08-04T00:11:15.329Z,42.21
2022-08-04T00:13:54.235Z,42.63
2022-08-04T00:16:41.217Z,42.56
2022-08-04T00:19:24.526Z,42.41
2022-08-04T00:22:03.026Z,41.92
2022-08-04T00:24:32.085Z,42.30
2022-08-04T00:26:59.257Z,41.82
2022-08-04T00:29:27.775Z,41.77
2022-08-04T00:31:58.001Z,42.13
2022-08-04T00:34:28.005Z,42.12
2022-08-04T00:36:56.223Z,41.99
2022-08-04T00:39:24.105Z,42.52
2022-08-04T00:41:57.252Z,42.13
2022-08-04T00:44:49.125Z,41.58
2022-08-04T00:47:46.875Z,41.05
2022-08-04T00:50:39.815Z,41.09
2022-08-04T00:53:13.497Z,40.55
2022-08-04T00:56:10.505Z,40.74
2022-08-04T00:59:10.666Z,42.06
2022-08-04T01:01:59.387Z,42.33
2022-08-04T01:05:06.356Z,42.71
2022-08-04T01:07:45.395Z,43.47
2022-08-04T01:10:38.206Z,43.12
2022-08-04T01:13:23.416Z,42.79
2022-08-04T01:16:01.023Z,42.33
2022-08-04T01:18:37.411Z,42.54
2022-08-04T01:21:16.245Z,42.57
2022-08-04T01:24:02.125Z,42.56
2022-08-04T01:26:57.388Z,43.70
2022-08-04T01:29:43.751Z,43.39
2022-08-04T01:32:21.010Z,43.29
2022-08-04T01:35:05.635Z,42.24
2022-08-04T01:37:48.045Z,42.18
2022-08-04T01:40:16.131Z,41.89
2022-08-04T01:42:43.695Z,41.81
2022-08-04T01:45:12.698Z,42.18
2022-08-04T01:47:49.512Z,42.56
2022-08-04T01:50:16.632Z,43.13
2022-08-04T01:52:50.356Z,43.99
2022-08-04T01:55:18.901Z,44.02
2022-08-04T01:57:51.045Z,43.69
2022-08-04T02:00:21.026Z,44.12
2022-08-04T02:02:48.327Z,44.40
2022-08-04T02:05:17.245Z,43.98
2022-08-04T02:07:47.067Z,44.35
2022-08-04T02:10:51.096Z,44.60
2022-08-04T02:13:54.216Z,44.12
2022-08-04T02:16:40.929Z,44.56
2022-08-04T02:19:33.634Z,44.53
2022-08-04T02:22:09.593Z,44.70
2022-08-04T02:24:49.549Z,44.54
2022-08-04T02:27:20.570Z,44.84
2022-08-04T02:29:54.765Z,44.56
2022-08-04T02:32:30.606Z,44.16
2022-08-04T02:35:30.604Z,44.84
2022-08-04T02:38:17.065Z,45.15
2022-08-04T02:40:56.509Z,45.51
2022-08-04T02:43:51.931Z,45.82
2022-08-04T02:46:18.865Z,45.42
2022-08-04T02:48:51.275Z,44.95
2022-08-04T02:51:23.764Z,45.20
2022-08-04T02:53:54.753Z,45.52
2022-08-04T02:56:24.087Z,45.65
2022-08-04T02:58:59.057Z,45.60
2022-08-04T03:01:27.070Z,45.42
2022-08-04T03:04:00.046Z,46.37
2022-08-04T03:06:36.193Z,45.77
2022-08-04T03:09:49.285Z,45.20
2022-08-04T03:12:58.945Z,45.22
2022-08-04T03:15:44.415Z,45.68
2022-08-04T03:18:30.225Z,45.65
2022-08-04T03:21:28.205Z,46.29
2022-08-04T03:24:32.376Z,46.08
2022-08-04T03:27:14.465Z,46.62
2022-08-04T03:30:02.993Z,47.26
2022-08-04T03:32:57.946Z,47.21
2022-08-04T03:35:37.276Z,47.39
2022-08-04T03:38:34.876Z,47.47
2022-08-04T03:41:58.204Z,47.50
2022-08-04T03:44:48.344Z,46.98
2022-08-04T03:47:21.253Z,47.20
2022-08-04T03:50:23.143Z,47.32
2022-08-04T03:53:11.607Z,47.40
2022-08-04T03:56:00.527Z,47.03
2022-08-04T03:59:07.525Z,47.10
2022-08-04T04:02:06.742Z,47.01
2022-08-04T04:04:49.065Z,46.85
2022-08-04T04:07:40.815Z,47.27
2022-08-04T04:10:28.917Z,47.23
2022-08-04T04:13:14.565Z,47.16
2022-08-04T04:16:11.255Z,47.10
2022-08-04T04:19:15.654Z,48.04
2022-08-04T04:22:07.982Z,48.23
2022-08-04T04:24:37.973Z,48.68
2022-08-04T04:27:07.729Z,48.12
2022-08-04T04:30:07.400Z,48.40
2022-08-04T04:32:59.004Z,47.90
2022-08-04T04:35:50.784Z,47.90
2022-08-04T04:39:01.716Z,47.19
2022-08-04T04:41:57.564Z,46.53
2022-08-04T04:44:57.294Z,46.46
2022-08-04T04:47:43.209Z,46.59
2022-08-04T04:50:38.144Z,45.67
2022-08-04T04:53:13.794Z,44.73
2022-08-04T04:55:48.507Z,44.65
2022-08-04T04:58:19.144Z,44.70
2022-08-04T05:01:13.845Z,44.26
2022-08-04T05:04:11.945Z,45.26
2022-08-04T05:07:10.385Z,45.34
2022-08-04T05:09:48.353Z,45.76
2022-08-04T05:12:59.211Z,44.93
2022-08-04T05:15:15.395Z,44.97
2022-08-04T05:17:49.744Z,45.17
2022-08-04T05:20:30.385Z,44.66
2022-08-04T05:23:02.524Z,43.63
2022-08-04T05:25:35.685Z,43.64
2022-08-04T05:28:02.645Z,44.63
2022-08-04T05:30:34.286Z,44.49
2022-08-04T05:33:05.053Z,44.17
2022-08-04T05:35:52.985Z,43.66
2022-08-04T05:38:30.195Z,43.40
2022-08-04T05:40:58.125Z,43.10
2022-08-04T05:43:26.546Z,43.63
2022-08-04T05:45:54.537Z,43.11
2022-08-04T05:48:21.463Z,42.88
2022-08-04T05:50:49.404Z,41.90
2022-08-04T05:53:18.185Z,41.82
2022-08-04T05:55:57.415Z,41.13
2022-08-04T05:58:29.736Z,41.42
2022-08-04T06:00:58.922Z,41.58
2022-08-04T06:03:27.584Z,41.25
2022-08-04T06:05:55.124Z,41.28
2022-08-04T06:08:22.323Z,41.08
2022-08-04T06:10:51.375Z,41.02
2022-08-04T06:13:45.329Z,41.01
2022-08-04T06:16:29.331Z,40.13
2022-08-04T06:20:00.736Z,41.04
2022-08-04T06:21:51.225Z,41.11
2022-08-04T06:24:21.203Z,41.18
2022-08-04T06:26:50.284Z,40.86
2022-08-04T06:29:36.000Z,40.87
2022-08-04T06:32:31.058Z,40.25
2022-08-04T06:35:04.065Z,40.22
2022-08-04T06:37:42.130Z,39.96
2022-08-04T06:40:29.507Z,39.42
2022-08-04T06:43:00.904Z,39.34
2022-08-04T06:45:29.063Z,39.26
2022-08-04T06:47:56.716Z,39.26
2022-08-04T06:51:25.473Z,39.22
2022-08-04T06:53:12.384Z,39.69
2022-08-04T06:55:42.985Z,39.39
2022-08-04T06:58:10.805Z,39.76
2022-08-04T07:00:39.505Z,39.44
2022-08-04T07:03:10.204Z,39.15
2022-08-04T07:05:38.063Z,39.91
2022-08-04T07:08:05.625Z,39.18
2022-08-04T07:10:33.147Z,38.46
2022-08-04T07:13:01.719Z,38.80
2022-08-04T07:15:29.254Z,38.14
2022-08-04T07:18:02.092Z,36.33
2022-08-04T07:20:35.266Z,35.71
2022-08-04T07:23:08.384Z,33.38
2022-08-04T07:26:10.783Z,34.04
2022-08-04T07:28:28.466Z,33.82
2022-08-04T07:30:57.246Z,32.26
2022-08-04T07:33:26.050Z,31.72
2022-08-04T07:36:09.243Z,32.28
2022-08-04T07:38:48.673Z,31.92
2022-08-04T07:41:40.710Z,32.10
2022-08-04T07:44:09.168Z,31.88
2022-08-04T07:46:37.043Z,31.32
2022-08-04T07:49:05.556Z,31.59
2022-08-04T07:51:35.500Z,31.73
2022-08-04T07:54:05.447Z,31.76
2022-08-04T07:56:34.426Z,30.25
2022-08-04T07:59:01.856Z,31.14
2022-08-04T08:01:29.456Z,29.95
2022-08-04T08:03:58.267Z,30.46
2022-08-04T08:06:32.624Z,30.52
2022-08-04T08:09:12.678Z,30.94
2022-08-04T08:12:35.762Z,29.79
2022-08-04T08:14:35.726Z,30.70
2022-08-04T08:17:03.670Z,29.86
2022-08-04T08:19:31.566Z,29.82
2022-08-04T08:22:00.783Z,28.99
2022-08-04T08:24:30.188Z,29.20
2022-08-04T08:26:58.164Z,28.96
2022-08-04T08:29:26.841Z,29.95
2022-08-04T08:31:56.184Z,29.71
2022-08-04T08:34:29.127Z,29.68
2022-08-04T08:37:16.484Z,29.24
2022-08-04T08:39:54.498Z,29.47
2022-08-04T08:42:34.076Z,29.97
2022-08-04T08:45:01.014Z,29.73
2022-08-04T08:47:58.432Z,30.16
2022-08-04T08:51:06.224Z,29.79
2022-08-04T08:54:11.325Z,29.44
2022-08-04T08:56:53.626Z,29.20
2022-08-04T08:59:59.184Z,29.63
2022-08-04T09:03:04.658Z,29.31
2022-08-04T09:05:38.705Z,28.87
2022-08-04T09:08:24.384Z,28.97
2022-08-04T09:10:59.117Z,28.94
2022-08-04T09:13:27.883Z,28.97
2022-08-04T09:16:17.483Z,28.13
2022-08-04T09:19:00.832Z,28.39
2022-08-04T09:21:48.524Z,28.13
2022-08-04T09:24:41.444Z,28.32
2022-08-04T09:27:34.832Z,28.59
2022-08-04T09:30:06.223Z,28.79
2022-08-04T09:32:38.964Z,28.29
2022-08-04T09:35:32.205Z,29.00
2022-08-04T09:38:36.293Z,28.49
2022-08-04T09:41:49.046Z,27.92
2022-08-04T09:44:51.335Z,27.68
2022-08-04T09:47:43.937Z,28.57
2022-08-04T09:50:17.084Z,28.03
2022-08-04T09:53:08.624Z,27.95
2022-08-04T09:55:53.185Z,28.45
2022-08-04T09:58:34.246Z,27.96
2022-08-04T10:01:06.531Z,27.17
2022-08-04T10:03:37.189Z,28.31
2022-08-04T10:06:19.490Z,28.45
2022-08-04T10:09:21.366Z,26.64
2022-08-04T10:11:57.684Z,27.00
2022-08-04T10:14:53.748Z,26.64
2022-08-04T10:17:52.062Z,26.59
2022-08-04T10:20:47.583Z,26.40
2022-08-04T10:23:26.203Z,27.68
2022-08-04T10:26:26.854Z,26.85
2022-08-04T10:29:19.058Z,26.72
2022-08-04T10:31:57.586Z,26.63
2022-08-04T10:34:29.904Z,27.05
2022-08-04T10:36:59.784Z,26.06
2022-08-04T10:39:44.527Z,26.03
2022-08-04T10:42:31.025Z,26.18
2022-08-04T10:45:20.234Z,26.31
2022-08-04T10:47:59.432Z,27.33
2022-08-04T10:50:29.544Z,26.99
2022-08-04T10:53:07.830Z,27.03
2022-08-04T10:56:18.453Z,26.82
2022-08-04T10:59:17.086Z,27.33
2022-08-04T11:13:29.462Z,26.36
2022-08-04T11:16:02.774Z,26.81
2022-08-04T11:18:43.755Z,26.95
2022-08-04T11:21:29.086Z,27.24
2022-08-04T11:24:19.744Z,27.03
2022-08-04T11:26:58.665Z,26.97
2022-08-04T11:29:37.625Z,27.65
2022-08-04T11:32:09.225Z,25.67
2022-08-04T11:34:38.904Z,26.34
2022-08-04T11:37:41.587Z,26.01
2022-08-04T11:40:33.587Z,25.73
2022-08-04T11:43:10.055Z,25.36
2022-08-04T11:45:47.544Z,25.62
2022-08-04T11:48:20.326Z,24.94
2022-08-04T11:50:54.113Z,23.44
2022-08-04T11:53:26.205Z,24.47
2022-08-04T11:56:07.526Z,24.21
2022-08-04T11:58:37.309Z,23.33
2022-08-04T12:01:09.064Z,22.37
2022-08-04T12:04:09.955Z,22.77
2022-08-04T12:06:56.685Z,22.68
2022-08-04T12:09:47.345Z,23.40
2022-08-04T12:12:35.286Z,23.60
2022-08-04T12:15:30.933Z,22.17
2022-08-04T12:18:04.805Z,22.02
2022-08-04T12:20:43.550Z,22.31
2022-08-04T12:23:36.975Z,22.27
2022-08-04T12:26:08.913Z,21.70
2022-08-04T12:29:09.212Z,22.00
2022-08-04T12:31:28.305Z,21.79
2022-08-04T12:34:32.753Z,21.78
2022-08-04T12:37:13.026Z,21.71
2022-08-04T12:40:27.794Z,21.67
2022-08-04T12:42:56.106Z,21.28
2022-08-04T12:45:27.386Z,21.09
2022-08-04T12:47:58.284Z,21.24
2022-08-04T12:50:25.784Z,20.38
2022-08-04T12:53:04.549Z,21.79
2022-08-04T12:55:34.391Z,20.81
2022-08-04T12:58:16.089Z,20.61
2022-08-04T13:00:48.441Z,21.72
2022-08-04T13:03:18.134Z,21.00
2022-08-04T13:05:45.768Z,21.16
2022-08-04T13:08:14.173Z,21.69
2022-08-04T13:10:46.141Z,21.80
2022-08-04T13:13:25.904Z,21.16
2022-08-04T13:16:01.692Z,20.45
2022-08-04T13:18:32.367Z,20.72
2022-08-04T13:21:20.381Z,21.26
2022-08-04T13:24:19.672Z,20.35
2022-08-04T13:27:10.930Z,19.68
2022-08-04T13:29:59.594Z,20.85
2022-08-04T13:32:30.839Z,20.47
2022-08-04T13:35:00.428Z,20.57
2022-08-04T13:37:36.253Z,20.32
2022-08-04T13:40:10.256Z,20.18
2022-08-04T13:42:39.148Z,19.55
2022-08-04T13:45:08.494Z,18.72
2022-08-04T13:47:38.869Z,19.11
2022-08-04T13:50:30.419Z,19.05
2022-08-04T13:53:00.425Z,18.51
2022-08-04T13:55:34.407Z,19.41
2022-08-04T13:58:23.985Z,18.68
2022-08-04T14:01:16.159Z,20.00
2022-08-04T14:03:54.094Z,19.21
2022-08-04T14:06:29.787Z,18.88
2022-08-04T14:09:00.114Z,18.84
2022-08-04T14:12:09.268Z,20.00
2022-08-04T14:14:31.064Z,19.92
2022-08-04T14:17:19.920Z,18.92
2022-08-04T14:19:47.890Z,19.16
2022-08-04T14:22:27.443Z,19.36
2022-08-04T14:24:57.695Z,19.85
2022-08-04T14:27:25.291Z,20.22
2022-08-04T14:29:52.548Z,20.72
2022-08-04T14:32:21.546Z,20.49
2022-08-04T14:34:52.768Z,19.69
2022-08-04T14:37:20.859Z,20.06
2022-08-04T14:40:17.919Z,19.78
2022-08-04T14:42:44.214Z,20.00
2022-08-04T14:45:12.348Z,20.20
2022-08-04T14:47:52.729Z,19.75
2022-08-04T14:50:21.065Z,19.75
2022-08-04T14:52:48.056Z,20.22
2022-08-04T14:55:24.064Z,19.61
2022-08-04T14:58:36.283Z,19.55
2022-08-04T15:00:39.661Z,19.84
2022-08-04T15:03:10.094Z,20.47
2022-08-04T15:06:01.700Z,19.94
2022-08-04T15:08:31.242Z,20.15
2022-08-04T15:11:02.665Z,19.80
2022-08-04T15:13:32.465Z,20.86
2022-08-04T15:16:06.191Z,20.98
2022-08-04T15:18:39.318Z,20.78
2022-08-04T15:21:08.011Z,21.08
2022-08-04T15:23:39.587Z,20.84
2022-08-04T15:26:13.920Z,21.55
2022-08-04T15:28:53.357Z,21.52
2022-08-04T15:32:04.488Z,21.60
2022-08-04T15:34:13.025Z,22.00
2022-08-04T15:36:56.652Z,22.11
2022-08-04T15:39:53.285Z,22.22
2022-08-04T15:42:42.665Z,21.73
2022-08-04T15:45:20.906Z,21.86
2022-08-04T15:48:03.022Z,22.03
2022-08-04T15:50:31.137Z,22.57
2022-08-04T15:53:10.848Z,22.79
2022-08-04T15:55:44.362Z,22.71
2022-08-04T15:58:13.377Z,22.91
2022-08-04T16:00:54.263Z,23.49
2022-08-04T16:03:58.390Z,23.51
2022-08-04T16:06:29.009Z,23.93
2022-08-04T16:09:02.454Z,24.09
2022-08-04T16:11:31.392Z,23.54
2022-08-04T16:13:58.936Z,24.04
2022-08-04T16:16:47.137Z,24.13
2022-08-04T16:19:23.244Z,23.89
2022-08-04T16:21:51.784Z,24.90
2022-08-04T16:24:32.119Z,25.76
2022-08-04T16:27:01.052Z,25.70
2022-08-04T16:29:36.843Z,26.20
2022-08-04T16:32:12.870Z,26.57
2022-08-04T16:35:04.357Z,26.72
2022-08-04T16:37:32.790Z,27.53
2022-08-04T16:40:35.902Z,27.66
2022-08-04T16:43:08.324Z,28.04
2022-08-04T16:45:48.689Z,28.15
2022-08-04T16:48:21.695Z,28.41
2022-08-04T16:50:50.024Z,28.41
2022-08-04T16:54:02.714Z,28.53
2022-08-04T16:56:09.145Z,28.99
2022-08-04T16:58:37.037Z,29.00
2022-08-04T17:01:21.801Z,29.54
2022-08-04T17:04:05.324Z,29.57
2022-08-04T17:06:41.196Z,30.20
2022-08-04T17:09:17.312Z,30.05
2022-08-04T17:11:46.739Z,30.43
2022-08-04T17:14:14.167Z,30.76
2022-08-04T17:16:43.136Z,31.28
2022-08-04T17:19:24.039Z,31.12
2022-08-04T17:22:02.207Z,31.45
2022-08-04T17:24:31.249Z,31.70
2022-08-04T17:26:58.977Z,31.90
2022-08-04T17:29:44.519Z,31.93
2022-08-04T17:32:21.865Z,32.15
2022-08-04T17:34:51.430Z,32.39
2022-08-04T17:37:38.947Z,32.57
2022-08-04T17:40:10.172Z,33.03
2022-08-04T17:42:39.945Z,33.11
2022-08-04T17:48:00.217Z,33.63
2022-08-04T17:50:36.003Z,34.25
2022-08-04T17:53:11.988Z,33.45
2022-08-04T17:55:40.647Z,33.70
2022-08-04T17:58:33.933Z,33.96
2022-08-04T18:01:23.520Z,34.95
2022-08-04T18:03:51.675Z,35.99
2022-08-04T18:06:20.321Z,36.07
2022-08-04T18:08:57.472Z,36.78
2022-08-04T18:11:29.935Z,37.20
2022-08-04T18:14:10.552Z,37.65
2022-08-04T18:16:46.990Z,38.21
2022-08-04T18:19:18.987Z,38.97
2022-08-04T18:22:00.127Z,39.05
2022-08-04T18:24:56.114Z,39.04
2022-08-04T18:27:25.642Z,38.93
2022-08-04T18:30:31.044Z,38.74
2022-08-04T18:33:04.295Z,38.02
2022-08-04T18:36:31.448Z,37.79
2022-08-04T18:38:22.345Z,38.32
2022-08-04T18:40:52.942Z,38.47
2022-08-04T18:43:28.164Z,38.28
2022-08-04T18:45:59.577Z,38.43
2022-08-04T18:48:36.845Z,38.42
2022-08-04T18:53:58.540Z,38.44
2022-08-04T18:56:29.729Z,38.93
2022-08-04T18:59:04.798Z,39.04
2022-08-04T19:02:12.886Z,38.78
2022-08-04T19:04:33.724Z,39.07
2022-08-04T19:07:28.879Z,39.14
2022-08-04T19:09:58.148Z,38.88
2022-08-04T19:12:27.424Z,39.65
2022-08-04T19:14:58.063Z,39.41
2022-08-04T19:17:57.026Z,39.48
2022-08-04T19:24:28.870Z,39.35
2022-08-04T19:26:08.234Z,39.67
2022-08-04T19:28:39.045Z,39.91
2022-08-04T19:31:08.599Z,39.73
2022-08-04T19:33:58.866Z,39.73
2022-08-04T19:36:27.821Z,40.01
2022-08-04T19:39:00.550Z,39.84
2022-08-04T19:41:31.172Z,40.03
2022-08-04T19:43:58.477Z,40.06
2022-08-04T19:50:03.873Z,40.48
2022-08-04T19:52:04.807Z,40.48
2022-08-04T19:54:32.512Z,40.10
2022-08-04T19:56:59.586Z,40.35
2022-08-04T19:59:27.125Z,40.50
2022-08-04T20:01:59.454Z,40.16
2022-08-04T20:04:28.086Z,40.21
2022-08-04T20:06:58.358Z,40.41
2022-08-04T20:09:27.154Z,40.91
2022-08-04T20:11:57.821Z,40.74
2022-08-04T20:14:32.511Z,40.75
2022-08-04T20:17:10.319Z,40.56
2022-08-04T20:19:39.046Z,40.72
2022-08-04T20:22:50.912Z,40.81
2022-08-04T20:25:00.994Z,40.73
2022-08-04T20:27:59.236Z,41.05
2022-08-04T20:30:28.434Z,40.97
2022-08-04T20:32:55.785Z,41.02
2022-08-04T20:35:28.965Z,41.09
2022-08-04T20:38:00.235Z,40.87
2022-08-04T20:40:29.194Z,40.55
2022-08-04T20:42:58.287Z,40.57
2022-08-04T20:45:55.683Z,40.64
2022-08-04T20:48:13.005Z,40.86
2022-08-04T20:50:40.226Z,40.79
2022-08-04T20:53:16.262Z,40.76
2022-08-04T20:55:55.527Z,40.74
2022-08-04T20:58:27.427Z,40.99
2022-08-04T21:00:55.464Z,41.18
2022-08-04T21:03:49.366Z,40.97
2022-08-04T21:06:10.218Z,40.78
2022-08-04T21:08:37.421Z,41.14
2022-08-04T21:11:06.951Z,41.20
2022-08-04T21:13:50.621Z,41.02
2022-08-04T21:16:53.710Z,40.96
2022-08-04T21:19:12.958Z,41.32
2022-08-04T21:21:54.509Z,41.77
2022-08-04T21:24:26.051Z,41.95
2022-08-04T21:26:56.638Z,41.76
2022-08-04T21:29:34.986Z,42.20
2022-08-04T21:32:05.881Z,42.46
2022-08-04T21:34:39.674Z,42.63
2022-08-04T21:37:09.887Z,42.68
2022-08-04T21:39:50.986Z,42.51
2022-08-04T21:42:28.049Z,42.50
2022-08-04T21:45:10.213Z,42.35
2022-08-04T21:47:46.568Z,42.49
2022-08-04T21:50:19.783Z,43.04
2022-08-04T21:52:49.228Z,43.02
2022-08-04T21:55:17.049Z,43.31
2022-08-04T21:57:46.144Z,43.73
2022-08-04T22:00:18.406Z,43.63
2022-08-04T22:02:53.170Z,44.15
2022-08-04T22:05:21.617Z,43.94
2022-08-04T22:07:50.753Z,43.94
2022-08-04T22:10:32.182Z,44.28
2022-08-04T22:13:03.001Z,44.64
2022-08-04T22:16:03.759Z,44.48
2022-08-04T22:18:24.372Z,44.19
2022-08-04T22:20:54.357Z,44.29
2022-08-04T22:23:25.246Z,44.13
2022-08-04T22:25:53.620Z,44.03
2022-08-04T22:28:27.119Z,44.12
2022-08-04T22:30:56.800Z,43.93
2022-08-04T22:33:23.982Z,44.03
2022-08-04T22:36:13.612Z,43.73
2022-08-04T22:38:48.840Z,43.56
2022-08-04T22:41:20.774Z,43.77
2022-08-04T22:43:54.809Z,44.27
2022-08-04T22:46:26.013Z,44.14
2022-08-04T22:48:54.053Z,44.44
2022-08-04T22:51:22.478Z,44.24
2022-08-04T22:53:51.935Z,44.16
2022-08-04T22:56:38.032Z,44.26
2022-08-04T22:59:10.023Z,44.68
2022-08-04T23:01:59.242Z,44.11
2022-08-04T23:04:26.102Z,44.90
2022-08-04T23:06:54.948Z,45.30
2022-08-04T23:09:48.848Z,45.13
2022-08-04T23:12:24.277Z,45.93
2022-08-04T23:14:54.865Z,46.02
2022-08-04T23:17:22.841Z,46.40
2022-08-04T23:19:57.376Z,46.49
2022-08-04T23:22:36.977Z,45.93
2022-08-04T23:25:16.561Z,45.79
2022-08-04T23:27:51.463Z,46.32
2022-08-04T23:30:24.906Z,46.47
2022-08-04T23:32:57.583Z,46.70
2022-08-04T23:35:24.889Z,46.91
2022-08-04T23:37:57.344Z,47.07
2022-08-04T23:40:32.642Z,46.77
2022-08-04T23:43:17.257Z,47.55
2022-08-04T23:46:04.042Z,47.72
2022-08-04T23:48:34.377Z,47.14
2022-08-04T23:51:14.103Z,47.44
2022-08-04T23:54:02.542Z,46.94
2022-08-04T23:56:34.911Z,46.95
2022-08-04T23:59:03.791Z,46.50
